Time;durP1;ratioP1;P1;durP2;ratioP2;P2;SDS_P1;SDS_P2;PMS_P1;PMS_P2;Temp;Humidity;BMP_temperature;BMP_pressure;BME280_temperature;BME280_humidity;BME280_pressure;Samples;Min_cycle;Max_cycle;Signal;HPM_P1;HPM_P2
2022/04/30 00:01:42;;;;;;;1.00;1.00;;;;;;;;;;4993725;28;20196;-61
2022/04/30 00:04:15;;;;;;;1.60;1.50;;;;;;;;;;5007450;28;20296;-62
2022/04/30 00:06:43;;;;;;;1.27;1.17;;;;;;;;;;5007038;28;20302;-62
2022/04/30 00:09:15;;;;;;;1.17;1.07;;;;;;;;;;5003546;28;20291;-62
2022/04/30 00:11:44;;;;;;;1.00;1.00;;;;;;;;;;4975694;28;20212;-62
2022/04/30 00:14:12;;;;;;;1.20;1.10;;;;;;;;;;5007550;28;20210;-62
2022/04/30 00:16:43;;;;;;;1.27;1.20;;;;;;;;;;4997937;28;20637;-62
2022/04/30 00:19:15;;;;;;;2.07;1.23;;;;;;;;;;4987947;28;20204;-62
2022/04/30 00:21:47;;;;;;;1.20;1.10;;;;;;;;;;4988807;28;20220;-61
2022/04/30 00:24:17;;;;;;;1.40;1.30;;;;;;;;;;5007639;28;20199;-62
2022/04/30 00:26:48;;;;;;;1.07;1.07;;;;;;;;;;5006781;28;20223;-62
2022/04/30 00:29:17;;;;;;;1.13;1.13;;;;;;;;;;4984292;28;20328;-61
2022/04/30 00:31:53;;;;;;;1.17;1.17;;;;;;;;;;4988571;28;20679;-62
2022/04/30 00:34:33;;;;;;;1.40;1.30;;;;;;;;;;4988018;28;20206;-62
2022/04/30 00:37:06;;;;;;;1.33;1.23;;;;;;;;;;4991158;28;20218;-62
2022/04/30 00:39:38;;;;;;;1.30;1.20;;;;;;;;;;4985128;28;20215;-61
2022/04/30 00:42:12;;;;;;;1.23;1.13;;;;;;;;;;4995930;28;20199;-62
2022/04/30 00:44:43;;;;;;;1.20;1.10;;;;;;;;;;4987538;28;20208;-62
2022/04/30 00:47:19;;;;;;;1.40;1.30;;;;;;;;;;4976275;28;20621;-61
2022/04/30 00:49:48;;;;;;;1.33;1.23;;;;;;;;;;4984766;28;20204;-61
2022/04/30 00:52:19;;;;;;;1.60;1.07;;;;;;;;;;5006734;28;20570;-61
2022/04/30 00:54:53;;;;;;;1.67;1.30;;;;;;;;;;4989930;28;20191;-61
2022/04/30 00:57:24;;;;;;;1.83;1.40;;;;;;;;;;5008939;28;20766;-61
2022/04/30 01:00:01;;;;;;;1.20;1.10;;;;;;;;;;5017026;28;20196;-61
2022/04/30 01:02:40;;;;;;;1.30;1.20;;;;;;;;;;5013160;28;20684;-61
2022/04/30 01:05:10;;;;;;;1.20;1.10;;;;;;;;;;5007341;28;20269;-62
2022/04/30 01:07:41;;;;;;;1.40;1.30;;;;;;;;;;5011911;28;20187;-62
2022/04/30 01:10:09;;;;;;;1.23;1.03;;;;;;;;;;5026265;28;20230;-62
2022/04/30 01:12:40;;;;;;;1.40;1.10;;;;;;;;;;5026158;28;20234;-62
2022/04/30 01:15:12;;;;;;;2.43;1.30;;;;;;;;;;5004926;28;20202;-62
2022/04/30 01:17:42;;;;;;;1.13;1.13;;;;;;;;;;5005919;28;20211;-61
2022/04/30 01:20:13;;;;;;;1.10;1.10;;;;;;;;;;5007816;28;20294;-61
2022/04/30 01:23:04;;;;;;;2.40;1.00;;;;;;;;;;5020325;28;20203;-61
2022/04/30 01:25:33;;;;;;;1.20;1.10;;;;;;;;;;5027311;28;20191;-61
2022/04/30 01:28:05;;;;;;;1.20;1.10;;;;;;;;;;5029695;28;20203;-61
2022/04/30 01:30:34;;;;;;;1.37;1.30;;;;;;;;;;5012486;28;20257;-61
2022/04/30 01:38:40;;;;;;;1.37;1.20;;;;;;;;;;5024907;28;20215;-62
2022/04/30 01:41:09;;;;;;;1.23;1.00;;;;;;;;;;5029146;28;20199;-61
2022/04/30 01:43:38;;;;;;;1.30;1.20;;;;;;;;;;5023112;28;20209;-61
2022/04/30 01:46:10;;;;;;;1.43;1.33;;;;;;;;;;5020172;28;20235;-62
2022/04/30 01:48:39;;;;;;;1.57;1.17;;;;;;;;;;5024340;28;20183;-62
2022/04/30 01:51:13;;;;;;;1.20;1.10;;;;;;;;;;5029588;28;20207;-62
2022/04/30 01:53:42;;;;;;;1.00;1.00;;;;;;;;;;5009777;28;20180;-61
2022/04/30 01:56:12;;;;;;;1.40;1.30;;;;;;;;;;5026678;28;20215;-62
2022/04/30 01:58:41;;;;;;;1.10;1.10;;;;;;;;;;5028993;28;20223;-62
2022/04/30 02:01:12;;;;;;;1.20;1.10;;;;;;;;;;5011169;28;20188;-62
2022/04/30 02:03:40;;;;;;;1.10;1.00;;;;;;;;;;5021288;28;20202;-62
2022/04/30 02:06:10;;;;;;;1.30;1.20;;;;;;;;;;5029365;28;20215;-62
2022/04/30 02:08:37;;;;;;;1.20;1.10;;;;;;;;;;5008698;28;20632;-62
2022/04/30 02:11:11;;;;;;;1.13;1.00;;;;;;;;;;4987496;28;20232;-62
2022/04/30 02:13:40;;;;;;;1.10;1.00;;;;;;;;;;5013349;28;20207;-61
2022/04/30 02:16:12;;;;;;;1.20;1.10;;;;;;;;;;5016426;28;20231;-62
2022/04/30 02:18:43;;;;;;;1.00;1.00;;;;;;;;;;5014771;28;20231;-61
2022/04/30 02:21:12;;;;;;;1.10;1.10;;;;;;;;;;5006221;28;20226;-62
2022/04/30 02:23:43;;;;;;;1.23;1.10;;;;;;;;;;5018644;28;20206;-62
2022/04/30 02:26:16;;;;;;;1.30;1.20;;;;;;;;;;5028393;28;20215;-61
2022/04/30 02:28:46;;;;;;;1.03;1.03;;;;;;;;;;5028320;28;20253;-62
2022/04/30 02:31:28;;;;;;;1.63;1.53;;;;;;;;;;5028739;28;20593;-62
2022/04/30 02:33:57;;;;;;;1.10;1.10;;;;;;;;;;5025985;28;20295;-62
2022/04/30 02:36:28;;;;;;;0.90;0.90;;;;;;;;;;5009251;28;20191;-62
2022/04/30 02:39:00;;;;;;;1.17;1.07;;;;;;;;;;5010069;28;20199;-62
2022/04/30 02:41:29;;;;;;;0.90;0.90;;;;;;;;;;5007294;28;20202;-62
2022/04/30 02:43:59;;;;;;;0.90;0.90;;;;;;;;;;5018667;28;20199;-62
2022/04/30 02:46:31;;;;;;;2.70;1.20;;;;;;;;;;5010744;28;20222;-61
2022/04/30 02:49:00;;;;;;;1.20;1.10;;;;;;;;;;5028458;28;20191;-62
2022/04/30 02:51:30;;;;;;;1.00;1.00;;;;;;;;;;5027404;28;20190;-61
2022/04/30 02:53:59;;;;;;;1.20;1.10;;;;;;;;;;5009608;28;20194;-62
2022/04/30 02:56:28;;;;;;;0.83;0.83;;;;;;;;;;5007737;28;20277;-62
2022/04/30 03:01:45;;;;;;;1.03;0.97;;;;;;;;;;4986311;28;20243;-62
2022/04/30 03:04:15;;;;;;;1.20;1.10;;;;;;;;;;5014198;28;20677;-61
2022/04/30 03:06:47;;;;;;;1.00;0.90;;;;;;;;;;5022995;28;20215;-61
2022/04/30 03:09:18;;;;;;;0.90;0.80;;;;;;;;;;5025452;28;20294;-62
2022/04/30 03:11:48;;;;;;;1.17;1.00;;;;;;;;;;5025409;28;20724;-62
2022/04/30 03:14:16;;;;;;;1.40;0.90;;;;;;;;;;5027797;28;20732;-62
2022/04/30 03:22:16;;;;;;;1.37;1.27;;;;;;;;;;5008195;28;20239;-62
2022/04/30 03:24:45;;;;;;;1.20;1.10;;;;;;;;;;5023124;28;20203;-61
2022/04/30 03:27:17;;;;;;;0.90;0.80;;;;;;;;;;5028146;28;20218;-62
2022/04/30 03:29:53;;;;;;;1.00;0.83;;;;;;;;;;5024925;28;20191;-62
2022/04/30 03:32:24;;;;;;;1.17;1.10;;;;;;;;;;5007930;28;20636;-61
2022/04/30 03:34:55;;;;;;;0.97;0.97;;;;;;;;;;5019550;28;20192;-62
2022/04/30 03:37:27;;;;;;;0.87;0.87;;;;;;;;;;5007240;28;20226;-62
2022/04/30 03:39:55;;;;;;;1.10;1.00;;;;;;;;;;5022339;28;20668;-62
2022/04/30 03:42:28;;;;;;;1.13;1.03;;;;;;;;;;5027536;28;20252;-61
2022/04/30 03:44:57;;;;;;;1.33;0.90;;;;;;;;;;5024661;28;20215;-62
2022/04/30 03:47:26;;;;;;;1.20;1.10;;;;;;;;;;5027126;28;20207;-62
2022/04/30 03:49:54;;;;;;;1.07;0.90;;;;;;;;;;5026375;28;20194;-62
2022/04/30 03:52:27;;;;;;;1.03;0.93;;;;;;;;;;5010572;28;20198;-62
2022/04/30 03:54:56;;;;;;;0.97;0.87;;;;;;;;;;5026400;28;20299;-62
2022/04/30 03:57:28;;;;;;;1.03;1.03;;;;;;;;;;5024356;28;20238;-62
2022/04/30 03:59:57;;;;;;;0.80;0.70;;;;;;;;;;5017210;28;20615;-62
2022/04/30 04:02:26;;;;;;;1.10;0.97;;;;;;;;;;5013608;28;20192;-63
2022/04/30 04:04:56;;;;;;;0.93;0.87;;;;;;;;;;5020632;28;20202;-63
2022/04/30 04:07:26;;;;;;;1.13;0.90;;;;;;;;;;5018342;28;20230;-61
2022/04/30 04:09:53;;;;;;;1.00;1.00;;;;;;;;;;5014991;28;20199;-62
2022/04/30 04:12:26;;;;;;;1.03;0.90;;;;;;;;;;5024678;28;20187;-63
2022/04/30 04:17:57;;;;;;;1.00;0.90;;;;;;;;;;5022389;28;20686;-62
2022/04/30 04:20:27;;;;;;;0.93;0.93;;;;;;;;;;5020767;28;20565;-62
2022/04/30 04:22:56;;;;;;;1.17;1.07;;;;;;;;;;5027222;28;20206;-62
2022/04/30 04:28:15;;;;;;;0.90;0.90;;;;;;;;;;5027608;28;20577;-62
2022/04/30 04:30:43;;;;;;;0.80;0.80;;;;;;;;;;5022635;28;20815;-62
2022/04/30 04:33:17;;;;;;;0.90;0.90;;;;;;;;;;5004501;28;20680;-62
2022/04/30 04:35:49;;;;;;;1.20;1.10;;;;;;;;;;5006503;28;20204;-62
2022/04/30 04:38:19;;;;;;;1.00;1.00;;;;;;;;;;5008270;28;20226;-61
2022/04/30 04:40:46;;;;;;;1.00;1.00;;;;;;;;;;5024686;28;20628;-62
2022/04/30 04:43:14;;;;;;;0.90;0.80;;;;;;;;;;5027115;28;20210;-62
2022/04/30 04:45:45;;;;;;;0.80;0.80;;;;;;;;;;5022227;28;20242;-62
2022/04/30 04:48:18;;;;;;;0.87;0.87;;;;;;;;;;5025759;28;20239;-62
2022/04/30 04:50:49;;;;;;;1.00;1.00;;;;;;;;;;5027793;28;20610;-62
2022/04/30 04:53:16;;;;;;;1.03;0.93;;;;;;;;;;5031214;28;20186;-62
2022/04/30 04:55:46;;;;;;;1.43;0.93;;;;;;;;;;5025274;28;20222;-63
2022/04/30 04:58:17;;;;;;;0.90;0.90;;;;;;;;;;5027209;28;20231;-62
2022/04/30 05:00:46;;;;;;;0.83;0.83;;;;;;;;;;5024988;28;20260;-63
2022/04/30 05:03:18;;;;;;;1.07;0.80;;;;;;;;;;5031227;28;20288;-62
2022/04/30 05:05:48;;;;;;;0.93;0.93;;;;;;;;;;5010853;28;20945;-62
2022/04/30 05:08:17;;;;;;;1.13;1.10;;;;;;;;;;5027766;28;20235;-62
2022/04/30 05:10:46;;;;;;;1.20;1.10;;;;;;;;;;5030388;28;20317;-62
2022/04/30 05:13:18;;;;;;;1.63;1.53;;;;;;;;;;5030637;28;20187;-62
2022/04/30 05:15:48;;;;;;;1.37;1.27;;;;;;;;;;5018710;28;20743;-62
2022/04/30 05:18:20;;;;;;;1.60;1.47;;;;;;;;;;5010265;28;20196;-62
2022/04/30 05:20:50;;;;;;;1.00;1.00;;;;;;;;;;5019992;28;20203;-62
2022/04/30 05:23:22;;;;;;;1.00;1.00;;;;;;;;;;5030357;28;20200;-63
2022/04/30 05:25:50;;;;;;;1.27;1.13;;;;;;;;;;5027910;28;20199;-62
2022/04/30 05:28:24;;;;;;;1.13;1.10;;;;;;;;;;5012504;28;20814;-62
2022/04/30 05:30:54;;;;;;;1.07;0.90;;;;;;;;;;4999013;28;20225;-62
2022/04/30 05:33:34;;;;;;;1.40;1.10;;;;;;;;;;5007220;28;20208;-62
2022/04/30 05:36:06;;;;;;;1.50;1.40;;;;;;;;;;5015331;28;20206;-62
2022/04/30 05:38:38;;;;;;;1.20;1.10;;;;;;;;;;4993513;28;20239;-62
2022/04/30 05:41:09;;;;;;;1.40;1.10;;;;;;;;;;5023993;28;20547;-62
2022/04/30 05:43:39;;;;;;;1.40;1.30;;;;;;;;;;5024300;28;20183;-62
2022/04/30 05:46:13;;;;;;;1.27;1.17;;;;;;;;;;5028777;28;20207;-63
2022/04/30 05:48:45;;;;;;;1.23;1.13;;;;;;;;;;5013258;28;20210;-63
2022/04/30 05:51:14;;;;;;;1.40;1.30;;;;;;;;;;5029305;28;20195;-62
2022/04/30 05:53:43;;;;;;;1.20;1.10;;;;;;;;;;5027522;28;20270;-63
2022/04/30 05:56:12;;;;;;;1.40;1.27;;;;;;;;;;5022225;28;20225;-62
2022/04/30 05:58:42;;;;;;;1.33;1.23;;;;;;;;;;5029330;28;20231;-62
2022/04/30 06:01:12;;;;;;;1.47;1.37;;;;;;;;;;5023070;28;20640;-62
2022/04/30 06:03:40;;;;;;;1.50;1.40;;;;;;;;;;5026527;28;20202;-62
2022/04/30 06:06:11;;;;;;;1.43;1.30;;;;;;;;;;5029313;28;20206;-62
2022/04/30 06:08:42;;;;;;;1.63;1.20;;;;;;;;;;5025908;28;20243;-62
2022/04/30 06:11:12;;;;;;;1.40;1.30;;;;;;;;;;5029005;28;20207;-62
2022/04/30 06:13:40;;;;;;;1.37;1.20;;;;;;;;;;5008989;28;20176;-62
2022/04/30 06:16:12;;;;;;;1.27;1.10;;;;;;;;;;5011696;28;20198;-62
2022/04/30 06:18:43;;;;;;;1.73;1.30;;;;;;;;;;5028897;28;20257;-62
2022/04/30 06:21:38;;;;;;;1.60;1.30;;;;;;;;;;5023537;28;20207;-63
2022/04/30 06:24:08;;;;;;;1.17;1.07;;;;;;;;;;5016830;28;20527;-63
2022/04/30 06:26:35;;;;;;;1.60;1.50;;;;;;;;;;5020932;28;20203;-62
2022/04/30 06:29:03;;;;;;;2.00;1.40;;;;;;;;;;5009796;28;20216;-62
2022/04/30 06:31:33;;;;;;;1.63;1.40;;;;;;;;;;5015845;28;20221;-63
2022/04/30 06:34:01;;;;;;;1.60;1.50;;;;;;;;;;5029254;28;20195;-63
2022/04/30 06:36:29;;;;;;;1.60;1.50;;;;;;;;;;5026627;28;20206;-62
2022/04/30 06:38:59;;;;;;;1.67;1.40;;;;;;;;;;5009118;28;20397;-61
2022/04/30 06:41:28;;;;;;;1.40;1.30;;;;;;;;;;5019978;28;20648;-62
2022/04/30 06:43:56;;;;;;;1.50;1.40;;;;;;;;;;5024571;28;20293;-63
2022/04/30 06:46:27;;;;;;;1.60;1.50;;;;;;;;;;5027760;28;20203;-62
2022/04/30 06:48:56;;;;;;;1.50;1.40;;;;;;;;;;5028895;28;20215;-62
2022/04/30 06:51:23;;;;;;;1.70;1.60;;;;;;;;;;5018721;28;20215;-62
2022/04/30 06:59:28;;;;;;;1.33;1.13;;;;;;;;;;5005354;28;20213;-62
2022/04/30 07:02:07;;;;;;;1.73;1.30;;;;;;;;;;5001869;28;20210;-62
2022/04/30 07:04:38;;;;;;;1.60;1.40;;;;;;;;;;5008609;28;20562;-63
2022/04/30 07:07:11;;;;;;;1.07;1.07;;;;;;;;;;5008037;28;20776;-62
2022/04/30 07:09:43;;;;;;;1.97;1.80;;;;;;;;;;4986341;28;20215;-63
2022/04/30 07:12:17;;;;;;;1.73;1.60;;;;;;;;;;5008093;28;20183;-62
2022/04/30 07:14:52;;;;;;;1.40;1.30;;;;;;;;;;4991631;28;20230;-62
2022/04/30 07:17:24;;;;;;;1.90;1.40;;;;;;;;;;5003421;28;20199;-62
2022/04/30 07:19:52;;;;;;;1.50;1.40;;;;;;;;;;4985203;28;20224;-62
2022/04/30 07:22:27;;;;;;;1.40;1.30;;;;;;;;;;5003242;28;20202;-62
2022/04/30 07:24:58;;;;;;;1.47;1.37;;;;;;;;;;4988154;28;20321;-62
2022/04/30 07:27:29;;;;;;;1.50;1.40;;;;;;;;;;5003635;28;20216;-62
2022/04/30 07:29:59;;;;;;;1.40;1.30;;;;;;;;;;5005672;28;20200;-62
2022/04/30 07:32:30;;;;;;;1.60;1.43;;;;;;;;;;5005336;28;20208;-62
2022/04/30 07:35:12;;;;;;;1.43;1.33;;;;;;;;;;5007838;28;20184;-62
2022/04/30 07:37:43;;;;;;;1.67;1.40;;;;;;;;;;4993025;28;20207;-62
2022/04/30 07:40:17;;;;;;;2.03;1.20;;;;;;;;;;4988608;28;20310;-62
2022/04/30 07:42:47;;;;;;;1.60;1.50;;;;;;;;;;5003983;28;20211;-62
2022/04/30 07:45:16;;;;;;;1.70;1.20;;;;;;;;;;4987979;28;20211;-63
2022/04/30 07:47:45;;;;;;;1.70;1.60;;;;;;;;;;4995884;28;20725;-63
2022/04/30 07:50:17;;;;;;;1.77;1.67;;;;;;;;;;4988508;28;20611;-62
2022/04/30 07:52:53;;;;;;;2.27;1.83;;;;;;;;;;5003532;28;20192;-63
2022/04/30 07:55:28;;;;;;;2.10;1.53;;;;;;;;;;5007726;28;20203;-62
2022/04/30 07:57:59;;;;;;;2.93;1.30;;;;;;;;;;5014827;28;20226;-62
2022/04/30 08:00:28;;;;;;;2.13;1.77;;;;;;;;;;5015168;28;20191;-62
2022/04/30 08:03:03;;;;;;;2.07;1.50;;;;;;;;;;5023201;28;20199;-62
2022/04/30 08:05:37;;;;;;;1.60;1.50;;;;;;;;;;5024753;28;20213;-61
2022/04/30 08:08:29;;;;;;;1.83;1.23;;;;;;;;;;5027537;28;20195;-62
2022/04/30 08:10:59;;;;;;;2.03;1.67;;;;;;;;;;5017973;28;20215;-62
2022/04/30 08:13:27;;;;;;;1.60;1.40;;;;;;;;;;4997588;28;20663;-63
2022/04/30 08:15:59;;;;;;;2.37;1.57;;;;;;;;;;5017432;28;20207;-62
2022/04/30 08:18:30;;;;;;;1.60;1.43;;;;;;;;;;5020028;28;20538;-61
2022/04/30 08:21:02;;;;;;;1.97;1.40;;;;;;;;;;4990229;28;20207;-61
2022/04/30 08:23:36;;;;;;;1.20;1.10;;;;;;;;;;5020487;28;20218;-62
2022/04/30 08:26:08;;;;;;;1.63;1.53;;;;;;;;;;5010066;28;20903;-62
2022/04/30 08:28:40;;;;;;;2.67;1.80;;;;;;;;;;5026574;28;20604;-62
2022/04/30 08:31:13;;;;;;;1.97;1.77;;;;;;;;;;5026987;28;20273;-62
2022/04/30 08:33:55;;;;;;;1.30;1.20;;;;;;;;;;4981931;28;20207;-62
2022/04/30 08:36:25;;;;;;;1.23;1.13;;;;;;;;;;4988834;28;20228;-62
2022/04/30 08:38:54;;;;;;;1.33;1.20;;;;;;;;;;4987914;28;20730;-63
2022/04/30 08:41:26;;;;;;;1.93;1.33;;;;;;;;;;4987883;28;20207;-63
2022/04/30 08:43:55;;;;;;;1.97;1.40;;;;;;;;;;5016068;28;20203;-62
2022/04/30 08:46:26;;;;;;;1.33;1.23;;;;;;;;;;4987710;28;20223;-62
2022/04/30 08:48:57;;;;;;;1.60;1.37;;;;;;;;;;5009689;28;20206;-62
2022/04/30 08:51:28;;;;;;;1.13;0.90;;;;;;;;;;5009173;28;20211;-62
2022/04/30 08:53:58;;;;;;;1.43;1.33;;;;;;;;;;5025550;28;20554;-62
2022/04/30 08:56:28;;;;;;;1.33;1.23;;;;;;;;;;5026578;28;20201;-62
2022/04/30 08:59:05;;;;;;;1.93;1.50;;;;;;;;;;5027883;28;20245;-62
2022/04/30 09:01:58;;;;;;;1.27;1.17;;;;;;;;;;4988850;28;20247;-63
2022/04/30 09:04:41;;;;;;;1.60;1.50;;;;;;;;;;5026948;28;20256;-63
2022/04/30 09:07:17;;;;;;;2.13;1.13;;;;;;;;;;5026085;28;20729;-63
2022/04/30 09:09:58;;;;;;;1.30;1.20;;;;;;;;;;5009498;28;20195;-64
2022/04/30 09:12:31;;;;;;;1.63;1.53;;;;;;;;;;5022226;28;20207;-62
2022/04/30 09:15:15;;;;;;;1.20;0.90;;;;;;;;;;5024388;28;20195;-62
2022/04/30 09:17:56;;;;;;;1.20;1.10;;;;;;;;;;4998129;28;20199;-62
2022/04/30 09:20:53;;;;;;;1.47;1.20;;;;;;;;;;4987576;28;20177;-62
2022/04/30 09:23:25;;;;;;;1.20;1.10;;;;;;;;;;5007769;28;20215;-62
2022/04/30 09:25:58;;;;;;;1.30;1.13;;;;;;;;;;5007411;28;20218;-62
2022/04/30 09:28:27;;;;;;;1.60;1.23;;;;;;;;;;5009337;28;20671;-62
2022/04/30 09:31:11;;;;;;;1.37;1.27;;;;;;;;;;5026385;28;20187;-62
2022/04/30 09:33:44;;;;;;;1.63;1.53;;;;;;;;;;5021143;28;20218;-62
2022/04/30 09:38:58;;;;;;;1.30;1.10;;;;;;;;;;5025699;28;20203;-62
2022/04/30 09:41:26;;;;;;;1.60;1.50;;;;;;;;;;5011376;28;20745;-62
2022/04/30 09:44:07;;;;;;;1.53;1.30;;;;;;;;;;5021932;28;20195;-62
2022/04/30 09:46:43;;;;;;;1.83;1.67;;;;;;;;;;5027245;28;20217;-62
2022/04/30 09:54:52;;;;;;;1.63;1.40;;;;;;;;;;5029276;28;20781;-62
2022/04/30 09:57:24;;;;;;;1.70;1.60;;;;;;;;;;5028776;28;20297;-62
2022/04/30 10:00:00;;;;;;;1.63;1.53;;;;;;;;;;4999980;28;20212;-62
2022/04/30 10:02:33;;;;;;;2.10;1.40;;;;;;;;;;5010031;28;20179;-62
2022/04/30 10:05:11;;;;;;;1.30;1.20;;;;;;;;;;5029345;28;20194;-62
2022/04/30 10:07:57;;;;;;;1.40;1.30;;;;;;;;;;5024135;28;20198;-62
2022/04/30 10:10:36;;;;;;;1.53;1.20;;;;;;;;;;5007182;28;20215;-62
2022/04/30 10:13:17;;;;;;;1.30;1.20;;;;;;;;;;5013542;28;20605;-62
2022/04/30 10:15:53;;;;;;;1.33;1.23;;;;;;;;;;5018436;28;20180;-63
2022/04/30 10:18:34;;;;;;;1.63;1.30;;;;;;;;;;5015882;28;20187;-62
2022/04/30 10:21:22;;;;;;;1.40;1.23;;;;;;;;;;5028985;28;20289;-62
2022/04/30 10:24:03;;;;;;;2.07;1.53;;;;;;;;;;5023382;28;20211;-63
2022/04/30 10:26:35;;;;;;;1.87;1.67;;;;;;;;;;5012096;28;20199;-63
2022/04/30 10:29:13;;;;;;;2.63;1.83;;;;;;;;;;5029136;28;20277;-62
2022/04/30 10:31:49;;;;;;;1.53;1.43;;;;;;;;;;5025663;28;20629;-62
2022/04/30 10:34:32;;;;;;;2.37;2.00;;;;;;;;;;5026162;28;20298;-63
2022/04/30 10:37:12;;;;;;;1.63;1.53;;;;;;;;;;4998717;28;20430;-62
2022/04/30 10:39:46;;;;;;;1.63;1.53;;;;;;;;;;5022375;28;20210;-62
2022/04/30 10:42:41;;;;;;;1.97;1.80;;;;;;;;;;5028907;28;20921;-62
2022/04/30 10:45:17;;;;;;;1.63;1.53;;;;;;;;;;5028568;28;20191;-62
2022/04/30 10:47:56;;;;;;;1.83;1.53;;;;;;;;;;5023162;28;20289;-62
2022/04/30 10:50:26;;;;;;;1.67;1.57;;;;;;;;;;5012513;28;20199;-62
2022/04/30 10:52:55;;;;;;;1.50;1.40;;;;;;;;;;5021248;28;20207;-62
2022/04/30 10:55:26;;;;;;;1.50;1.40;;;;;;;;;;4989412;28;20649;-62
2022/04/30 10:57:56;;;;;;;1.73;1.30;;;;;;;;;;4968081;28;20682;-62
2022/04/30 11:00:33;;;;;;;1.57;1.47;;;;;;;;;;5001275;28;20199;-62
2022/04/30 11:03:17;;;;;;;1.70;1.60;;;;;;;;;;5010261;28;20285;-62
2022/04/30 11:05:50;;;;;;;3.10;1.70;;;;;;;;;;4992413;28;20290;-62
2022/04/30 11:08:20;;;;;;;2.00;1.50;;;;;;;;;;5009230;28;20223;-62
2022/04/30 11:10:54;;;;;;;1.57;1.37;;;;;;;;;;5026160;28;20699;-62
2022/04/30 11:13:23;;;;;;;1.80;1.60;;;;;;;;;;5027457;28;20249;-62
2022/04/30 11:15:53;;;;;;;1.50;1.33;;;;;;;;;;4998860;28;20188;-62
2022/04/30 11:18:30;;;;;;;3.03;1.53;;;;;;;;;;5009405;28;20574;-62
2022/04/30 11:21:01;;;;;;;1.53;1.43;;;;;;;;;;5027933;28;20203;-62
2022/04/30 11:23:30;;;;;;;1.50;1.30;;;;;;;;;;5023877;28;20602;-62
2022/04/30 11:26:01;;;;;;;1.40;1.30;;;;;;;;;;5027546;28;20198;-62
2022/04/30 11:28:31;;;;;;;2.23;1.23;;;;;;;;;;5010255;28;20270;-61
2022/04/30 11:31:04;;;;;;;1.93;1.60;;;;;;;;;;5028037;28;20245;-61
2022/04/30 11:33:37;;;;;;;1.73;1.30;;;;;;;;;;4991213;28;20258;-62
2022/04/30 11:36:10;;;;;;;1.50;1.40;;;;;;;;;;5027865;28;20191;-62
2022/04/30 11:38:40;;;;;;;2.50;1.67;;;;;;;;;;4991695;28;20265;-62
2022/04/30 11:41:10;;;;;;;1.60;1.50;;;;;;;;;;5027350;28;20199;-62
2022/04/30 11:43:41;;;;;;;1.60;1.50;;;;;;;;;;5024714;28;20218;-63
2022/04/30 11:46:11;;;;;;;1.53;1.40;;;;;;;;;;4996145;28;20226;-63
2022/04/30 11:48:42;;;;;;;2.53;1.80;;;;;;;;;;5027340;28;20210;-62
2022/04/30 11:51:10;;;;;;;1.50;1.40;;;;;;;;;;5027823;28;20246;-62
2022/04/30 11:53:38;;;;;;;2.17;1.60;;;;;;;;;;5007946;28;20663;-62
2022/04/30 11:56:07;;;;;;;1.70;1.60;;;;;;;;;;5010031;28;20245;-62
2022/04/30 11:58:43;;;;;;;3.33;1.83;;;;;;;;;;5028896;28;20251;-62
2022/04/30 12:01:26;;;;;;;1.50;1.40;;;;;;;;;;4991463;28;20199;-62
2022/04/30 12:04:03;;;;;;;2.87;1.60;;;;;;;;;;5008336;28;20188;-62
2022/04/30 12:06:31;;;;;;;1.63;1.50;;;;;;;;;;5008681;28;20660;-62
2022/04/30 12:08:59;;;;;;;1.60;1.47;;;;;;;;;;5010470;28;20683;-62
2022/04/30 12:11:29;;;;;;;1.60;1.50;;;;;;;;;;5026119;28;20656;-62
2022/04/30 12:14:00;;;;;;;1.57;1.47;;;;;;;;;;5011423;28;20206;-62
2022/04/30 12:16:40;;;;;;;1.43;1.33;;;;;;;;;;5013983;28;20203;-62
2022/04/30 12:25:14;;;;;;;1.87;1.77;;;;;;;;;;5026795;28;20632;-62
2022/04/30 12:28:03;;;;;;;1.63;1.50;;;;;;;;;;5008435;28;20199;-62
2022/04/30 12:31:12;;;;;;;1.30;1.20;;;;;;;;;;5014722;28;20191;-62
2022/04/30 12:33:51;;;;;;;1.83;1.50;;;;;;;;;;5022028;28;20190;-62
2022/04/30 12:36:23;;;;;;;1.40;1.23;;;;;;;;;;5008584;28;20179;-62
2022/04/30 12:38:57;;;;;;;1.73;1.63;;;;;;;;;;4990362;28;20225;-62
2022/04/30 12:41:27;;;;;;;1.23;1.13;;;;;;;;;;5026070;28;20195;-62
2022/04/30 12:43:59;;;;;;;1.50;1.37;;;;;;;;;;5026535;28;20195;-62
2022/04/30 12:46:28;;;;;;;1.83;1.63;;;;;;;;;;5024350;28;20219;-62
2022/04/30 12:48:59;;;;;;;2.03;1.93;;;;;;;;;;5009005;28;20222;-62
2022/04/30 12:51:29;;;;;;;1.90;1.67;;;;;;;;;;5025886;28;20287;-62
2022/04/30 12:53:59;;;;;;;2.50;1.70;;;;;;;;;;5007703;28;20218;-62
2022/04/30 12:56:31;;;;;;;2.00;1.80;;;;;;;;;;5025512;28;20229;-61
2022/04/30 12:59:01;;;;;;;1.63;1.27;;;;;;;;;;4977188;28;20232;-62
2022/04/30 13:01:34;;;;;;;1.60;1.40;;;;;;;;;;5010196;28;20212;-62
2022/04/30 13:04:30;;;;;;;1.60;1.50;;;;;;;;;;5007062;28;20535;-62
2022/04/30 13:07:05;;;;;;;1.97;1.80;;;;;;;;;;5009980;28;20195;-62
2022/04/30 13:15:11;;;;;;;2.30;2.10;;;;;;;;;;5026894;28;20182;-62
2022/04/30 13:17:41;;;;;;;2.13;1.93;;;;;;;;;;5008275;28;20196;-62
2022/04/30 13:20:14;;;;;;;3.07;2.73;;;;;;;;;;5015686;28;20224;-62
2022/04/30 13:22:52;;;;;;;2.43;2.20;;;;;;;;;;5028003;28;20206;-62
2022/04/30 13:25:23;;;;;;;2.90;2.10;;;;;;;;;;5024602;28;20506;-62
2022/04/30 13:27:55;;;;;;;2.50;2.20;;;;;;;;;;5027372;28;20257;-62
2022/04/30 13:30:30;;;;;;;2.67;2.33;;;;;;;;;;5013610;28;20211;-62
2022/04/30 13:32:59;;;;;;;2.83;2.20;;;;;;;;;;5029592;28;20215;-62
2022/04/30 13:35:27;;;;;;;3.80;2.23;;;;;;;;;;5027987;28;20238;-62
2022/04/30 13:37:57;;;;;;;2.70;2.13;;;;;;;;;;5016518;28;20199;-62
2022/04/30 13:40:31;;;;;;;2.27;2.07;;;;;;;;;;5016406;28;20225;-62
2022/04/30 13:43:03;;;;;;;4.10;2.90;;;;;;;;;;5013175;28;20199;-62
2022/04/30 13:45:36;;;;;;;2.47;2.27;;;;;;;;;;5027170;28;20203;-62
2022/04/30 13:48:40;;;;;;;2.67;2.30;;;;;;;;;;5029824;28;20191;-62
2022/04/30 13:51:13;;;;;;;2.63;2.10;;;;;;;;;;5029582;28;20224;-63
2022/04/30 13:53:46;;;;;;;2.60;2.00;;;;;;;;;;5019684;28;20200;-62
2022/04/30 13:56:17;;;;;;;3.63;2.33;;;;;;;;;;5020712;28;20195;-62
2022/04/30 13:58:48;;;;;;;3.60;2.33;;;;;;;;;;5007699;28;20235;-62
2022/04/30 14:01:20;;;;;;;2.93;2.37;;;;;;;;;;5003189;28;20207;-62
2022/04/30 14:03:51;;;;;;;2.40;2.20;;;;;;;;;;5027569;28;20230;-62
2022/04/30 14:06:21;;;;;;;2.33;2.13;;;;;;;;;;5027742;28;20207;-62
2022/04/30 14:08:53;;;;;;;2.37;2.17;;;;;;;;;;5029938;28;20656;-62
2022/04/30 14:11:24;;;;;;;3.23;2.27;;;;;;;;;;5025264;28;20218;-62
2022/04/30 14:16:42;;;;;;;2.13;1.93;;;;;;;;;;5025342;28;20195;-62
2022/04/30 14:19:15;;;;;;;3.27;2.50;;;;;;;;;;5018005;28;20258;-62
2022/04/30 14:21:45;;;;;;;3.60;2.10;;;;;;;;;;5004888;28;20223;-62
2022/04/30 14:24:14;;;;;;;2.20;2.00;;;;;;;;;;4991093;28;20200;-63
2022/04/30 14:26:57;;;;;;;3.00;2.40;;;;;;;;;;5022470;28;20198;-62
2022/04/30 14:29:28;;;;;;;3.17;2.50;;;;;;;;;;5029414;28;20214;-62
2022/04/30 14:31:56;;;;;;;2.93;2.40;;;;;;;;;;5028186;28;20487;-62
2022/04/30 14:34:24;;;;;;;2.57;2.37;;;;;;;;;;5026031;28;20688;-62
2022/04/30 14:36:57;;;;;;;2.70;2.37;;;;;;;;;;5021522;28;20206;-62
2022/04/30 14:39:29;;;;;;;3.30;2.40;;;;;;;;;;5009202;28;20258;-62
2022/04/30 14:42:00;;;;;;;2.40;2.20;;;;;;;;;;5019489;28;20218;-62
2022/04/30 14:44:30;;;;;;;2.67;1.90;;;;;;;;;;5028283;28;20575;-62
2022/04/30 14:47:02;;;;;;;2.07;1.90;;;;;;;;;;5026644;28;20223;-62
2022/04/30 14:49:55;;;;;;;2.63;2.20;;;;;;;;;;5018735;28;20203;-62
2022/04/30 14:52:38;;;;;;;2.63;2.33;;;;;;;;;;5010504;28;20186;-62
2022/04/30 14:55:12;;;;;;;2.77;2.07;;;;;;;;;;4989484;28;20212;-62
2022/04/30 14:57:43;;;;;;;2.30;2.10;;;;;;;;;;5018309;28;20245;-62
2022/04/30 15:00:21;;;;;;;2.27;2.07;;;;;;;;;;5018111;28;20213;-62
2022/04/30 15:02:59;;;;;;;2.43;2.00;;;;;;;;;;5026720;28;20198;-62
2022/04/30 15:05:31;;;;;;;3.37;1.90;;;;;;;;;;5028153;28;20203;-62
2022/04/30 15:08:03;;;;;;;2.83;2.27;;;;;;;;;;5020837;28;20214;-62
2022/04/30 15:10:33;;;;;;;3.23;2.37;;;;;;;;;;5026192;28;20239;-62
2022/04/30 15:13:04;;;;;;;3.10;2.20;;;;;;;;;;5027865;28;20207;-62
2022/04/30 15:15:35;;;;;;;2.20;2.00;;;;;;;;;;5021003;28;20637;-62
2022/04/30 15:18:05;;;;;;;2.10;2.00;;;;;;;;;;5014225;28;20196;-62
2022/04/30 15:20:37;;;;;;;2.30;2.10;;;;;;;;;;5008241;28;20216;-62
2022/04/30 15:23:08;;;;;;;2.50;2.30;;;;;;;;;;5023927;28;20309;-62
2022/04/30 15:25:41;;;;;;;3.30;2.43;;;;;;;;;;5025780;28;20210;-62
2022/04/30 15:28:21;;;;;;;2.50;2.30;;;;;;;;;;5027565;28;20222;-62
2022/04/30 15:30:49;;;;;;;2.10;1.90;;;;;;;;;;5010583;28;20225;-62
2022/04/30 15:33:21;;;;;;;2.77;1.90;;;;;;;;;;5027627;28;20201;-62
2022/04/30 15:35:52;;;;;;;2.27;2.03;;;;;;;;;;5022362;28;20696;-61
2022/04/30 15:38:21;;;;;;;2.83;2.10;;;;;;;;;;5010398;28;20200;-62
2022/04/30 15:40:52;;;;;;;2.23;2.03;;;;;;;;;;5008483;28;20196;-62
2022/04/30 15:43:19;;;;;;;2.13;1.73;;;;;;;;;;5025497;28;20195;-62
2022/04/30 15:45:46;;;;;;;1.80;1.70;;;;;;;;;;5018251;28;20192;-62
2022/04/30 15:51:32;;;;;;;2.20;1.97;;;;;;;;;;5009568;28;20216;-62
2022/04/30 15:54:04;;;;;;;1.90;1.80;;;;;;;;;;5008308;28;20656;-62
2022/04/30 15:56:36;;;;;;;2.70;2.10;;;;;;;;;;5009489;28;20206;-63
2022/04/30 15:59:07;;;;;;;2.80;2.10;;;;;;;;;;5023970;28;20328;-62
2022/04/30 16:01:39;;;;;;;1.90;1.80;;;;;;;;;;5006916;28;20217;-62
2022/04/30 16:04:35;;;;;;;2.23;2.03;;;;;;;;;;5026321;28;20301;-62
2022/04/30 16:07:08;;;;;;;2.07;1.87;;;;;;;;;;5027408;28;20280;-62